Aérodrome :
LOGIN :

S'inscrire | Disclaimer

   EN    FR    IT 

 










Légende :    VFR   VFR Marginal   IFR   IFR Intensif   IFR Très Intensif
Visi : 
Plafond : 
>= 8 km
>= 3000ft
5 à 8 km
1000 à 3000 ft
1500m à 5 km
500 à 1000 ft
800 à 1500m
200 à 500 ft
< 800m
< 200 ft
Symboles :   Orages  Brouillard  Fortes neiges  Fortes précipitations  Vent > 20 kt
SIGMETs :   Divers  Orages  Givrage  Turbulence  Onde Orograph.  Cendres Volcan.






- Altitude de l'aérodrome : 784 ft
- Code IATA : TZL


LQTZ - Tuzla

DERNIER METAR :
  • 091030Z 15004KT 060V210 9999 SCT050 16/06 Q1009

METARs EXPIRÉS :
  • 091000Z 09005KT 9999 FEW050 14/08 Q1010
  • 090930Z 11005KT 070V150 9999 SCT050 12/08 Q1010
  • 090900Z 16003KT 080V210 9999 FEW050 08/05 Q1011
  • 090830Z VRB02KT 9999 FEW050 04/03 Q1011
  • 090800Z 10006KT 9999 FEW050 06/04 Q1011

TAF TAF LQTZ
Valide du 09 à 06h jusqu'au 10 à 06h UTC


090500Z 0906/1006 09004KT 8000 SCT030 TX11/0913Z TNM02/0906Z
PROB40
TEMPO 0906/0909 3000 BR



MET'MAP, la Météo Aéronautique d'un coup d'oeil ! - Copyright ORBIFLY Décembre 2007 - Disclaimer

ORBIFLY MET'MAP TEAM :

Programmation & Développement : Alexandra Zaïnal
Sur une idée originale de : Baudouin d'Aumeries
Assistance à la programmation : Marc-Olivier Méhu
Soutien technique & logistique : Manuel Goepfert

Contact : metmap@orbifly.com




SOURCES & CREDITS :

   NOAA